Time;durP1;ratioP1;P1;durP2;ratioP2;P2;SDS_P1;SDS_P2;PMS_P1;PMS_P2;Temp;Humidity;BMP_temperature;BMP_pressure;BME280_temperature;BME280_humidity;BME280_pressure;Samples;Min_cycle;Max_cycle;Signal;HPM_P1;HPM_P2
2022/09/16 00:00:37;;;;;;;;;;;18.00;50.10;;;15.61;55.27;100039.91;12253384;19;19940;-85
2022/09/16 00:04:39;;;;;;;;;;;18.00;50.10;;;16.09;55.27;100126.97;12255799;19;20389;-83
2022/09/16 00:08:42;;;;;;;;;;;17.90;50.00;;;16.10;55.29;100125.16;12265277;19;19911;-85
2022/09/16 00:12:44;;;;;;;;;;;18.00;50.10;;;16.00;55.11;100124.31;12262979;19;19918;-84
2022/09/16 00:16:45;;;;;;;;;;;17.90;50.00;;;16.07;55.41;100141.25;12266058;19;19922;-85
2022/09/16 00:20:49;;;;;;;;;;;17.90;50.00;;;15.84;55.33;100111.63;12265000;19;20348;-84
2022/09/16 00:24:51;;;;;;;;;;;18.30;50.20;;;15.57;55.29;100073.53;12265363;19;20609;-85
2022/09/16 00:28:52;;;;;;;;;;;17.90;50.00;;;15.92;55.34;100138.13;12266345;19;19960;-85
2022/09/16 00:32:54;;;;;;;;;;;17.80;49.90;;;15.86;55.25;100122.88;12257424;19;20250;-84
2022/09/16 00:36:55;;;;;;;;;;;17.80;50.00;;;15.73;55.31;100109.94;12252936;19;19918;-84
2022/09/16 00:40:57;;;;;;;;;;;18.00;50.10;;;15.86;55.32;100131.59;12252882;19;20257;-84
2022/09/16 00:45:03;;;;;;;;;;;17.80;50.00;;;15.84;55.27;100127.44;12254050;19;19953;-85
2022/09/16 00:49:26;;;;;;;;;;;17.80;50.00;;;15.72;55.30;100131.16;12259733;19;19925;-84
2022/09/16 00:53:41;;;;;;;;;;;17.70;50.00;;;15.54;55.44;100099.31;12258347;19;19978;-85
2022/09/16 00:57:43;;;;;;;;;;;17.60;50.00;;;15.58;55.55;100122.59;12262189;19;19948;-84
2022/09/16 01:01:46;;;;;;;;;;;17.60;50.00;;;15.62;55.51;100136.31;12257895;19;19948;-84
2022/09/16 01:05:48;;;;;;;;;;;17.60;50.00;;;15.64;55.44;100144.94;12261032;19;19914;-87
2022/09/16 01:09:49;;;;;;;;;;;17.50;50.00;;;15.54;55.42;100128.25;12260596;19;19926;-85
2022/09/16 01:13:51;;;;;;;;;;;17.60;50.10;;;15.57;55.36;100146.41;12254643;19;20274;-85
2022/09/16 01:18:30;;;;;;;;;;;17.40;50.10;;;15.56;55.57;100155.28;12260541;19;19918;-84
2022/09/16 01:23:17;;;;;;;;;;;17.50;50.10;;;15.54;55.57;100152.75;12261454;19;19923;-85
2022/09/16 01:27:24;;;;;;;;;;;17.40;50.10;;;15.52;55.43;100148.59;12258466;19;19936;-84
2022/09/16 01:31:39;;;;;;;;;;;17.40;50.10;;;15.50;55.59;100143.47;12258670;19;19915;-86
2022/09/16 01:35:53;;;;;;;;;;;17.40;50.10;;;15.37;55.29;100129.69;12260591;19;20359;-85
2022/09/16 01:40:27;;;;;;;;;;;17.30;50.20;;;15.42;55.66;100145.94;12259310;19;19915;-84
2022/09/16 01:44:41;;;;;;;;;;;17.30;50.20;;;15.27;55.56;100133.09;12250983;19;19945;-84
2022/09/16 01:48:57;;;;;;;;;;;17.30;50.20;;;15.37;55.63;100148.13;12257812;19;20318;-85
2022/09/16 01:53:24;;;;;;;;;;;17.30;50.30;;;15.35;55.58;100135.06;12254354;19;20309;-84
2022/09/16 01:57:51;;;;;;;;;;;17.20;50.30;;;15.22;55.49;100116.03;12258561;19;20005;-85
2022/09/16 02:02:07;;;;;;;;;;;17.20;50.30;;;15.25;55.53;100121.03;12256914;19;19923;-84
2022/09/16 02:06:18;;;;;;;;;;;17.20;50.30;;;15.25;55.81;100128.91;12257404;19;19929;-84
2022/09/16 02:10:33;;;;;;;;;;;17.20;50.30;;;15.26;55.58;100134.06;12256972;19;20243;-84
2022/09/16 02:14:41;;;;;;;;;;;17.20;50.50;;;15.18;55.53;100125.97;12256735;19;20338;-84
2022/09/16 02:18:46;;;;;;;;;;;17.10;50.30;;;15.22;55.70;100131.81;12256733;19;19918;-86
2022/09/16 02:22:52;;;;;;;;;;;17.20;50.40;;;15.21;55.55;100132.78;12254081;19;19914;-85
2022/09/16 02:26:59;;;;;;;;;;;17.20;50.40;;;15.20;55.60;100125.84;12255987;19;20233;-85
2022/09/16 02:31:04;;;;;;;;;;;17.10;50.40;;;15.10;55.51;100125.78;12254804;19;19935;-85
2022/09/16 02:35:08;;;;;;;;;;;17.10;50.40;;;15.14;55.70;100129.00;12254788;19;19926;-85
2022/09/16 02:39:13;;;;;;;;;;;17.10;50.40;;;15.16;55.77;100133.16;12256257;19;19930;-84
2022/09/16 02:43:15;;;;;;;;;;;17.00;50.40;;;15.00;55.75;100117.84;12251229;19;19914;-85
2022/09/16 02:47:32;;;;;;;;;;;17.30;50.60;;;15.08;55.85;100140.03;12254576;19;19918;-85
2022/09/16 02:52:05;;;;;;;;;;;17.10;50.50;;;14.95;55.86;100127.91;12254339;19;19949;-85
2022/09/16 02:56:19;;;;;;;;;;;17.00;50.50;;;14.94;55.52;100118.34;12254967;19;19911;-84
2022/09/16 03:00:21;;;;;;;;;;;17.00;50.50;;;14.99;55.76;100134.59;12254628;19;19911;-84
2022/09/16 03:04:22;;;;;;;;;;;16.90;50.50;;;14.87;55.95;100127.69;12252138;19;19930;-83
2022/09/16 03:08:23;;;;;;;;;;;16.90;50.60;;;14.92;55.97;100130.78;12252927;19;19918;-85
2022/09/16 03:12:57;;;;;;;;;;;17.20;50.80;;;14.96;55.81;100131.34;12251498;19;20265;-85
2022/09/16 03:17:24;;;;;;;;;;;16.90;50.70;;;14.95;55.92;100134.97;12261526;19;19933;-83
2022/09/16 03:21:33;;;;;;;;;;;16.90;50.70;;;14.92;55.93;100135.22;12255027;19;19990;-85
2022/09/16 03:25:39;;;;;;;;;;;16.80;50.70;;;14.83;55.69;100119.25;12255119;19;19926;-85
2022/09/16 03:29:56;;;;;;;;;;;16.80;50.80;;;14.88;55.86;100131.16;12253409;19;19913;-85
2022/09/16 03:34:15;;;;;;;;;;;16.90;50.80;;;14.88;55.95;100137.28;12248950;19;19911;-84
2022/09/16 03:38:18;;;;;;;;;;;16.80;50.90;;;14.85;56.00;100137.50;12256205;19;19940;-85
2022/09/16 03:42:20;;;;;;;;;;;16.80;50.80;;;14.73;56.09;100115.69;12263094;19;19919;-86
2022/09/16 03:46:22;;;;;;;;;;;16.70;50.90;;;14.76;55.82;100127.75;12264767;19;19967;-85
2022/09/16 03:50:23;;;;;;;;;;;16.80;50.90;;;14.53;56.10;100080.56;12263243;19;19923;-84
2022/09/16 03:54:26;;;;;;;;;;;16.70;51.00;;;14.59;55.97;100097.63;12262053;19;19911;-85
2022/09/16 03:58:27;;;;;;;;;;;16.80;51.00;;;14.73;56.19;100114.88;12263548;19;20238;-84
2022/09/16 04:02:29;;;;;;;;;;;16.70;51.00;;;14.66;56.12;100116.31;12260363;19;19932;-84
2022/09/16 04:06:30;;;;;;;;;;;16.90;51.10;;;14.66;56.26;100126.84;12261919;19;19935;-85
2022/09/16 04:10:33;;;;;;;;;;;16.60;50.90;;;14.62;56.17;100130.69;12261891;19;19925;-84
2022/09/16 04:14:35;;;;;;;;;;;16.90;51.10;;;14.60;56.25;100129.00;12262160;19;19926;-86
2022/09/16 04:18:36;;;;;;;;;;;16.60;51.00;;;14.31;56.30;100088.47;12262580;19;19911;-84
2022/09/16 04:22:37;;;;;;;;;;;16.50;51.00;;;14.61;56.33;100137.75;12260163;19;19932;-85
2022/09/16 04:26:40;;;;;;;;;;;16.50;51.10;;;14.53;56.36;100116.53;12262620;19;19923;-84
2022/09/16 04:30:41;;;;;;;;;;;16.50;51.10;;;14.49;56.38;100115.88;12261157;19;19926;-84
2022/09/16 04:34:43;;;;;;;;;;;16.50;51.10;;;14.15;56.32;100052.97;12257118;19;20542;-85
2022/09/16 04:38:46;;;;;;;;;;;16.40;51.10;;;14.46;56.41;100113.50;12259845;19;19907;-85
2022/09/16 04:42:49;;;;;;;;;;;16.90;51.40;;;14.35;56.37;100095.16;12257156;19;20569;-84
2022/09/16 04:46:50;;;;;;;;;;;16.40;51.10;;;14.49;56.44;100130.81;12258925;19;19939;-83
2022/09/16 04:50:53;;;;;;;;;;;16.40;51.20;;;14.42;56.26;100122.59;12258118;19;19918;-84
2022/09/16 04:54:54;;;;;;;;;;;16.50;51.20;;;14.41;56.42;100120.91;12254179;19;20340;-84
2022/09/16 04:58:59;;;;;;;;;;;16.50;51.10;;;14.30;56.30;100102.56;12254245;19;20682;-84
2022/09/16 05:03:01;;;;;;;;;;;16.40;51.20;;;14.43;56.39;100126.91;12251190;19;20002;-85
2022/09/16 05:07:02;;;;;;;;;;;16.30;51.10;;;14.34;56.34;100110.09;12255352;19;19923;-84
2022/09/16 05:11:06;;;;;;;;;;;16.40;51.30;;;14.46;56.47;100126.66;12244562;19;19939;-84
2022/09/16 05:15:08;;;;;;;;;;;16.40;51.30;;;14.46;56.52;100116.13;12249431;19;19938;-84
2022/09/16 05:19:11;;;;;;;;;;;16.40;51.30;;;14.41;56.50;100113.03;12263491;19;20275;-85
2022/09/16 05:23:12;;;;;;;;;;;16.40;51.60;;;14.49;56.37;100126.38;12251451;19;19924;-84
2022/09/16 05:27:16;;;;;;;;;;;16.40;51.30;;;14.36;56.43;100102.91;12256471;19;19934;-85
2022/09/16 05:31:21;;;;;;;;;;;16.60;51.30;;;14.51;56.49;100127.09;12250913;19;19943;-84
2022/09/16 05:35:23;;;;;;;;;;;16.40;51.30;;;14.53;56.52;100130.47;12250032;19;19919;-85
2022/09/16 05:39:24;;;;;;;;;;;16.50;51.30;;;14.48;56.58;100124.72;12258659;19;19922;-84
2022/09/16 05:43:25;;;;;;;;;;;16.40;51.30;;;14.29;56.87;100091.25;12252605;19;19918;-84
2022/09/16 05:47:27;;;;;;;;;;;16.60;51.40;;;14.47;56.43;100120.41;12256520;19;20305;-84
2022/09/16 05:51:29;;;;;;;;;;;16.50;51.30;;;14.28;56.58;100092.19;12253985;19;20265;-85
2022/09/16 05:55:31;;;;;;;;;;;16.50;51.30;;;14.45;56.49;100111.84;12257995;19;19921;-85
2022/09/16 05:59:32;;;;;;;;;;;16.60;51.40;;;14.55;56.50;100120.66;12256512;19;19967;-84
2022/09/16 06:03:35;;;;;;;;;;;16.90;51.40;;;14.59;56.42;100129.97;12253977;19;19919;-84
2022/09/16 06:07:36;;;;;;;;;;;16.50;51.20;;;14.64;56.58;100134.88;12261690;19;19914;-85
2022/09/16 06:11:41;;;;;;;;;;;16.90;51.30;;;14.63;56.59;100140.22;12257953;19;20331;-84
2022/09/16 06:15:55;;;;;;;;;;;16.60;51.20;;;14.62;56.58;100128.06;12256324;19;19947;-85
2022/09/16 06:19:56;;;;;;;;;;;16.60;51.20;;;14.29;56.57;100077.28;12258479;19;19960;-86
2022/09/16 06:23:58;;;;;;;;;;;16.50;51.20;;;14.10;56.42;100043.81;12253024;19;19915;-85
2022/09/16 06:28:00;;;;;;;;;;;16.60;51.30;;;14.19;56.68;100058.81;12258420;19;20364;-84
2022/09/16 06:32:02;;;;;;;;;;;16.60;51.30;;;13.80;56.59;99989.34;12252684;19;19922;-85
2022/09/16 06:36:05;;;;;;;;;;;16.80;51.40;;;14.00;56.66;100009.56;12247300;19;19926;-85
2022/09/16 06:40:07;;;;;;;;;;;16.60;51.40;;;14.23;56.59;100041.00;12254021;19;19951;-86
2022/09/16 06:44:09;;;;;;;;;;;16.60;51.40;;;14.34;56.80;100056.72;12249032;19;19939;-86
2022/09/16 06:48:11;;;;;;;;;;;16.70;51.50;;;14.34;56.78;100048.84;12252741;19;19919;-84
2022/09/16 06:52:12;;;;;;;;;;;16.70;51.50;;;14.58;56.78;100090.66;12249651;19;19915;-84
2022/09/16 06:56:16;;;;;;;;;;;16.60;51.40;;;14.20;56.76;100012.34;12250753;19;20321;-85
2022/09/16 07:00:18;;;;;;;;;;;17.10;51.70;;;14.28;56.75;100026.53;12250281;19;19970;-85
2022/09/16 07:04:19;;;;;;;;;;;16.80;51.70;;;14.51;56.79;100056.16;12244574;19;19947;-84
2022/09/16 07:08:21;;;;;;;;;;;17.20;51.70;;;14.57;56.65;100057.47;12248452;19;20572;-86
2022/09/16 07:12:23;;;;;;;;;;;16.90;51.50;;;14.48;56.81;100026.69;12251017;19;19918;-85
2022/09/16 07:16:25;;;;;;;;;;;17.10;51.60;;;14.49;56.82;100033.59;12257727;19;19918;-85
2022/09/16 07:20:27;;;;;;;;;;;17.10;51.60;;;14.64;56.80;100055.19;12249703;19;19914;-85
2022/09/16 07:24:28;;;;;;;;;;;17.00;51.60;;;14.98;56.81;100100.50;12248018;19;20281;-85
2022/09/16 07:28:31;;;;;;;;;;;17.20;51.50;;;15.20;56.85;100136.34;12250572;19;19953;-86
2022/09/16 07:32:32;;;;;;;;;;;17.10;51.40;;;15.29;56.86;100130.34;12244821;19;19907;-85
2022/09/16 07:36:45;;;;;;;;;;;17.20;51.40;;;15.22;56.65;100095.00;12247510;19;19926;-87
2022/09/16 07:40:46;;;;;;;;;;;17.20;51.50;;;15.47;56.90;100125.28;12249129;19;19923;-85
2022/09/16 07:44:48;;;;;;;;;;;17.30;51.60;;;15.60;56.74;100136.44;12248376;19;20401;-85
2022/09/16 07:48:50;;;;;;;;;;;17.40;51.50;;;15.71;56.81;100148.72;12248722;19;20669;-86
2022/09/16 07:52:55;;;;;;;;;;;17.40;51.50;;;15.81;56.67;100141.69;12244643;19;19944;-85
2022/09/16 07:56:56;;;;;;;;;;;17.60;51.60;;;15.87;56.89;100138.53;12251740;19;19994;-85
2022/09/16 08:00:58;;;;;;;;;;;17.70;51.60;;;16.06;56.69;100135.13;12252676;19;19930;-85
2022/09/16 08:04:59;;;;;;;;;;;17.80;51.60;;;16.20;56.85;100130.44;12251622;19;19914;-87
2022/09/16 08:09:01;;;;;;;;;;;17.90;51.60;;;16.28;56.68;100131.44;12252299;19;19915;-85
2022/09/16 08:13:04;;;;;;;;;;;18.00;51.60;;;16.34;56.62;100125.63;12248069;19;19919;-86
2022/09/16 08:17:06;;;;;;;;;;;18.10;51.40;;;16.34;56.41;100120.34;12248772;19;19918;-85
2022/09/16 08:21:13;;;;;;;;;;;18.50;51.30;;;16.39;56.54;100122.59;12248494;19;19915;-86
2022/09/16 08:25:14;;;;;;;;;;;18.30;51.10;;;16.41;56.54;100117.16;12250474;19;19936;-86
2022/09/16 08:29:16;;;;;;;;;;;18.40;51.10;;;16.24;56.66;100085.25;12258509;19;19974;-85
2022/09/16 08:33:20;;;;;;;;;;;18.40;51.00;;;16.65;56.74;100138.69;12252400;19;20237;-85
2022/09/16 08:37:22;;;;;;;;;;;18.70;51.10;;;16.67;56.45;100135.91;12255285;19;19943;-84
2022/09/16 08:41:38;;;;;;;;;;;18.50;50.90;;;16.77;56.44;100142.06;12255579;19;19953;-86
2022/09/16 08:45:54;;;;;;;;;;;18.60;50.90;;;16.75;56.46;100123.69;12257117;19;19907;-86
2022/09/16 08:49:57;;;;;;;;;;;18.60;50.90;;;16.69;56.72;100097.91;12257214;19;19947;-85
2022/09/16 08:54:05;;;;;;;;;;;18.70;50.80;;;17.00;56.59;100122.31;12251455;19;19918;-86
2022/09/16 08:58:29;;;;;;;;;;;18.80;50.90;;;17.19;56.55;100132.00;12258033;19;19919;-85
2022/09/16 09:02:46;;;;;;;;;;;18.90;51.00;;;17.40;56.34;100133.63;12252105;19;20281;-87
2022/09/16 09:07:16;;;;;;;;;;;19.00;51.00;;;17.52;56.32;100135.09;12257668;19;20004;-86
2022/09/16 09:11:43;;;;;;;;;;;19.20;50.80;;;17.54;56.35;100125.25;12255048;19;19947;-87
2022/09/16 09:15:58;;;;;;;;;;;19.40;50.60;;;17.42;56.17;100094.72;12265086;19;19919;-86
2022/09/16 09:20:32;;;;;;;;;;;19.40;50.50;;;17.59;56.13;100107.16;12258244;19;19918;-85
2022/09/16 09:24:47;;;;;;;;;;;19.40;50.20;;;17.65;56.37;100117.13;12257968;19;19929;-85
2022/09/16 09:29:17;;;;;;;;;;;19.40;50.20;;;17.70;55.82;100096.41;12257534;19;19915;-85
2022/09/16 09:33:30;;;;;;;;;;;19.60;50.40;;;18.00;56.13;100101.56;12247089;19;20314;-86
2022/09/16 09:37:48;;;;;;;;;;;19.70;50.60;;;17.56;55.93;100027.41;12251701;19;20617;-86
2022/09/16 09:42:35;;;;;;;;;;;19.80;50.00;;;18.10;55.95;100105.00;12253535;19;19915;-86
2022/09/16 09:46:40;;;;;;;;;;;19.90;49.80;;;17.97;55.86;100080.72;12248898;19;19926;-85
2022/09/16 09:50:44;;;;;;;;;;;19.90;49.70;;;18.09;55.71;100109.44;12251395;19;19922;-85
2022/09/16 09:54:49;;;;;;;;;;;19.90;49.70;;;18.08;55.60;100099.84;12250202;19;19923;-84
2022/09/16 09:59:17;;;;;;;;;;;19.90;49.30;;;18.06;56.04;100087.75;12254294;19;20329;-85
2022/09/16 10:03:18;;;;;;;;;;;20.00;49.30;;;18.28;56.05;100090.00;12248777;19;19927;-84
2022/09/16 10:07:22;;;;;;;;;;;20.10;49.30;;;18.54;56.01;100091.88;12249585;19;19972;-85
2022/09/16 10:11:26;;;;;;;;;;;20.20;49.30;;;18.28;55.54;100028.34;12247477;19;19919;-84
2022/09/16 10:15:30;;;;;;;;;;;20.30;49.50;;;18.75;55.32;100094.22;12246875;19;19925;-84
2022/09/16 10:19:37;;;;;;;;;;;20.40;48.50;;;18.38;55.39;100020.34;12251208;19;19970;-84
2022/09/16 10:23:39;;;;;;;;;;;20.60;48.20;;;18.41;55.56;100018.22;12243563;19;20633;-84
2022/09/16 10:27:40;;;;;;;;;;;20.50;47.70;;;18.63;55.51;100053.09;12248223;19;19917;-86
2022/09/16 10:31:42;;;;;;;;;;;20.70;47.20;;;18.55;55.17;100024.75;12247170;19;20318;-85
2022/09/16 10:35:59;;;;;;;;;;;20.60;46.40;;;18.97;55.31;100061.97;12248832;19;19926;-86
2022/09/16 10:40:04;;;;;;;;;;;20.70;47.80;;;19.13;55.27;100060.44;12253186;19;19919;-85
2022/09/16 10:44:13;;;;;;;;;;;20.90;48.00;;;19.34;54.73;100082.06;12250783;19;19915;-85
2022/09/16 10:48:19;;;;;;;;;;;21.00;46.00;;;19.33;54.63;100090.16;12250729;19;19927;-86
2022/09/16 10:52:27;;;;;;;;;;;21.00;46.60;;;19.22;54.84;100091.25;12248947;19;19986;-85
2022/09/16 10:56:34;;;;;;;;;;;21.10;47.10;;;18.88;54.83;100031.16;12252813;19;19926;-86
2022/09/16 11:00:55;;;;;;;;;;;21.00;47.20;;;19.08;54.71;100063.53;12249823;19;19929;-87
2022/09/16 11:05:11;;;;;;;;;;;21.00;47.50;;;19.06;54.65;100080.56;12248959;19;19960;-86
2022/09/16 11:09:33;;;;;;;;;;;21.00;47.10;;;19.00;54.58;100087.31;12254438;19;19931;-85
2022/09/16 11:13:47;;;;;;;;;;;21.00;47.50;;;19.06;54.50;100080.56;12255993;19;19911;-86
2022/09/16 11:18:10;;;;;;;;;;;20.90;46.90;;;18.70;54.81;100019.75;12253793;19;20393;-86
2022/09/16 11:22:26;;;;;;;;;;;20.90;47.40;;;18.94;54.43;100067.59;12250376;19;19919;-84
2022/09/16 11:26:47;;;;;;;;;;;20.90;47.20;;;18.96;54.43;100051.56;12255004;19;19911;-86
2022/09/16 11:31:06;;;;;;;;;;;20.90;47.20;;;19.16;54.33;100076.00;12256390;19;19918;-85
2022/09/16 11:35:22;;;;;;;;;;;20.90;46.60;;;19.15;54.34;100069.06;12257045;19;19922;-86
2022/09/16 11:39:43;;;;;;;;;;;20.90;46.90;;;19.24;54.17;100073.41;12250232;19;19946;-85
2022/09/16 11:43:56;;;;;;;;;;;21.00;45.80;;;19.34;54.38;100057.41;12244746;19;19914;-83
2022/09/16 11:48:16;;;;;;;;;;;21.00;46.30;;;19.45;54.16;100050.00;12250746;19;19951;-84
2022/09/16 11:52:27;;;;;;;;;;;21.10;47.10;;;19.63;54.13;100046.41;12242055;19;19914;-84
2022/09/16 11:56:42;;;;;;;;;;;21.20;46.70;;;19.62;54.03;100029.69;12245589;19;19910;-84
2022/09/16 12:00:44;;;;;;;;;;;21.40;46.50;;;19.80;54.00;100019.03;12239505;19;19939;-84
2022/09/16 12:05:14;;;;;;;;;;;21.80;46.70;;;20.06;53.89;100033.97;12251249;19;19917;-86
2022/09/16 12:09:36;;;;;;;;;;;21.60;46.40;;;20.19;53.50;100046.78;12253169;19;19919;-86
2022/09/16 12:13:45;;;;;;;;;;;21.70;46.10;;;20.21;53.25;100028.88;12244672;19;19915;-87
2022/09/16 12:17:55;;;;;;;;;;;21.80;44.00;;;20.29;53.58;100026.25;12256918;19;19926;-87
2022/09/16 12:22:15;;;;;;;;;;;22.00;45.70;;;20.43;53.22;100041.47;12254516;19;19921;-86
2022/09/16 12:26:24;;;;;;;;;;;22.10;46.20;;;20.43;53.32;100019.44;12262080;19;20322;-86
2022/09/16 12:30:46;;;;;;;;;;;22.10;45.20;;;20.37;53.43;99997.06;12259918;19;19923;-86
2022/09/16 12:34:54;;;;;;;;;;;22.20;45.90;;;20.46;53.34;100019.09;12258084;19;19914;-85
2022/09/16 12:39:00;;;;;;;;;;;22.20;45.80;;;20.42;53.10;100021.28;12244284;19;19918;-86
2022/09/16 12:43:27;;;;;;;;;;;22.20;44.10;;;20.36;53.07;100011.34;12250882;19;19935;-86
2022/09/16 12:47:47;;;;;;;;;;;22.20;45.30;;;20.30;53.06;100012.78;12249294;19;19929;-87
2022/09/16 12:52:11;;;;;;;;;;;22.10;44.90;;;20.21;53.10;100012.97;12232481;19;20259;-87
2022/09/16 12:56:31;;;;;;;;;;;22.10;45.30;;;20.13;53.27;100005.00;12253542;19;19919;-87
2022/09/16 13:00:43;;;;;;;;;;;22.00;45.20;;;20.07;52.78;100006.50;12255600;19;19935;-85
2022/09/16 13:04:57;;;;;;;;;;;21.90;44.80;;;19.98;53.01;99991.56;12254684;19;19929;-86
2022/09/16 13:09:23;;;;;;;;;;;22.10;45.10;;;19.91;52.79;99979.97;12257231;19;19947;-86
2022/09/16 13:13:49;;;;;;;;;;;21.80;45.20;;;19.92;52.85;99981.63;12255439;19;19927;-86
2022/09/16 13:17:51;;;;;;;;;;;21.80;45.10;;;19.90;52.74;99987.06;12255753;19;19915;-85
2022/09/16 13:21:57;;;;;;;;;;;21.80;44.00;;;19.73;52.64;99991.53;12249062;19;19943;-85
2022/09/16 13:26:04;;;;;;;;;;;21.80;43.70;;;19.36;52.56;99944.22;12253921;19;20265;-84
2022/09/16 13:30:13;;;;;;;;;;;21.60;45.60;;;19.01;52.48;99909.84;12256297;19;20341;-85
2022/09/16 13:34:16;;;;;;;;;;;21.50;46.00;;;19.14;52.91;99929.75;12253975;19;19939;-86
2022/09/16 13:38:17;;;;;;;;;;;21.40;46.00;;;19.37;52.75;99985.59;12258927;19;19923;-85
2022/09/16 13:42:20;;;;;;;;;;;21.30;46.10;;;19.30;52.94;99982.75;12256107;19;19978;-85
2022/09/16 13:46:36;;;;;;;;;;;21.40;45.80;;;19.28;53.02;99973.28;12253052;19;19960;-86
2022/09/16 13:50:41;;;;;;;;;;;21.10;46.20;;;19.24;52.79;99959.56;12255316;19;20350;-85
2022/09/16 13:54:47;;;;;;;;;;;21.10;46.00;;;19.22;52.95;99953.59;12253800;19;19915;-86
2022/09/16 13:59:03;;;;;;;;;;;21.00;45.00;;;19.14;53.18;99943.78;12249197;19;19922;-85
2022/09/16 14:03:42;;;;;;;;;;;21.20;46.00;;;19.28;52.81;99965.34;12252173;19;20044;-85
2022/09/16 14:07:52;;;;;;;;;;;21.00;46.00;;;19.29;53.03;99954.63;12251614;19;20372;-85
2022/09/16 14:12:22;;;;;;;;;;;21.10;46.00;;;19.33;52.77;99950.66;12252942;19;19918;-86
2022/09/16 14:16:26;;;;;;;;;;;21.10;46.10;;;19.38;52.73;99948.34;12253536;19;19918;-85
2022/09/16 14:20:30;;;;;;;;;;;21.20;45.70;;;19.48;52.60;99948.22;12255945;19;20348;-86
2022/09/16 14:24:37;;;;;;;;;;;21.20;45.60;;;19.52;52.32;99961.97;12250187;19;20249;-85
2022/09/16 14:28:39;;;;;;;;;;;21.20;45.40;;;19.32;52.42;99925.19;12252125;19;19923;-85
2022/09/16 14:32:40;;;;;;;;;;;21.20;45.50;;;19.01;52.49;99872.00;12248386;19;19979;-86
2022/09/16 14:36:44;;;;;;;;;;;21.50;45.30;;;19.05;52.59;99870.66;12249317;19;19931;-85
2022/09/16 14:40:46;;;;;;;;;;;21.20;44.80;;;19.33;52.29;99899.53;12249906;19;19922;-86
2022/09/16 14:44:50;;;;;;;;;;;21.40;45.30;;;19.60;52.49;99925.72;12252795;19;19925;-85
2022/09/16 14:48:51;;;;;;;;;;;21.30;45.50;;;19.66;52.13;99940.19;12252010;19;19923;-86
2022/09/16 14:53:05;;;;;;;;;;;21.40;45.30;;;19.69;51.74;99937.22;12248122;19;19947;-85
2022/09/16 14:57:13;;;;;;;;;;;21.40;44.10;;;19.40;51.85;99888.13;12253715;19;20322;-86
2022/09/16 15:01:20;;;;;;;;;;;21.60;44.50;;;19.67;51.97;99923.31;12245088;19;19944;-86
2022/09/16 15:05:25;;;;;;;;;;;21.50;43.90;;;19.70;51.73;99922.16;12250729;19;19915;-86
2022/09/16 15:09:38;;;;;;;;;;;21.50;44.30;;;19.70;52.04;99920.31;12261735;19;19931;-86
2022/09/16 15:13:40;;;;;;;;;;;21.60;42.90;;;19.52;51.58;99898.41;12247122;19;19931;-85
2022/09/16 15:17:42;;;;;;;;;;;21.50;43.60;;;19.70;51.66;99914.19;12246798;19;19948;-86
2022/09/16 15:21:44;;;;;;;;;;;21.50;44.20;;;19.73;51.46;99916.53;12248097;19;19934;-87
2022/09/16 15:25:58;;;;;;;;;;;21.50;44.20;;;19.72;51.51;99910.41;12250081;19;19915;-85
2022/09/16 15:30:00;;;;;;;;;;;21.60;45.00;;;19.72;51.43;99905.09;12248579;19;19926;-86
2022/09/16 15:34:23;;;;;;;;;;;21.50;43.90;;;19.75;51.56;99906.59;12245263;19;19915;-86
2022/09/16 15:38:37;;;;;;;;;;;21.60;44.30;;;19.77;51.19;99909.91;12256148;19;20219;-87
2022/09/16 15:42:38;;;;;;;;;;;21.60;43.90;;;19.69;51.55;99900.13;12256094;19;19922;-84
2022/09/16 15:46:44;;;;;;;;;;;21.50;44.20;;;19.78;51.27;99914.22;12261827;19;19911;-86
2022/09/16 15:50:56;;;;;;;;;;;21.50;44.40;;;19.79;51.52;99907.91;12261315;19;19919;-86
2022/09/16 15:55:01;;;;;;;;;;;21.60;43.40;;;19.74;51.33;99905.78;12262788;19;19915;-87
2022/09/16 15:59:22;;;;;;;;;;;21.60;44.10;;;19.69;51.18;99899.31;12263019;19;19915;-85
2022/09/16 16:03:23;;;;;;;;;;;21.60;43.90;;;19.69;51.08;99909.91;12256795;19;19915;-86
2022/09/16 16:07:45;;;;;;;;;;;21.50;43.50;;;19.78;51.16;99919.50;12259685;19;19919;-86
2022/09/16 16:11:46;;;;;;;;;;;21.60;43.70;;;19.69;51.18;99894.00;12253009;19;19929;-86
2022/09/16 16:15:49;;;;;;;;;;;21.70;44.20;;;19.70;51.25;99885.88;12261256;19;19907;-86
2022/09/16 16:19:50;;;;;;;;;;;21.60;44.20;;;19.76;50.93;99887.88;12261011;19;19914;-87
2022/09/16 16:23:51;;;;;;;;;;;21.60;44.10;;;19.62;50.60;99868.13;12252737;19;20246;-87
2022/09/16 16:27:53;;;;;;;;;;;21.60;44.10;;;19.78;51.14;99893.84;12257128;19;19933;-86
2022/09/16 16:31:58;;;;;;;;;;;21.80;44.30;;;19.69;50.96;99902.78;12257505;19;20338;-85
2022/09/16 16:35:59;;;;;;;;;;;21.50;43.80;;;19.61;50.56;99903.56;12258191;19;19933;-85
2022/09/16 16:40:02;;;;;;;;;;;21.40;43.50;;;19.40;50.76;99885.47;12257576;19;20261;-85
2022/09/16 16:44:04;;;;;;;;;;;21.40;43.80;;;19.42;50.53;99899.38;12254771;19;19944;-87
2022/09/16 16:48:06;;;;;;;;;;;21.70;43.60;;;19.32;50.82;99893.41;12255633;19;19983;-86
2022/09/16 16:52:08;;;;;;;;;;;21.20;43.50;;;19.14;50.97;99872.34;12255477;19;19923;-85
2022/09/16 16:56:11;;;;;;;;;;;21.20;43.20;;;19.14;50.78;99892.69;12253892;19;19968;-85
2022/09/16 17:00:13;;;;;;;;;;;21.10;43.40;;;19.15;50.77;99894.34;12254806;19;19958;-86
2022/09/16 17:04:15;;;;;;;;;;;21.00;43.50;;;19.08;50.88;99886.22;12252741;19;20275;-86
2022/09/16 17:08:16;;;;;;;;;;;21.00;43.80;;;19.14;50.76;99901.44;12256868;19;19925;-86
2022/09/16 17:12:18;;;;;;;;;;;21.30;43.70;;;19.03;50.50;99901.75;12251917;19;19919;-85
2022/09/16 17:16:21;;;;;;;;;;;21.00;43.60;;;18.45;50.37;99826.59;12256759;19;19937;-86
2022/09/16 17:20:22;;;;;;;;;;;20.90;43.50;;;18.89;50.71;99900.53;12256210;19;19922;-85
2022/09/16 17:24:24;;;;;;;;;;;21.00;43.80;;;18.89;50.37;99924.34;12254612;19;19945;-85
2022/09/16 17:28:25;;;;;;;;;;;20.80;43.40;;;18.79;50.77;99927.13;12255734;19;19907;-86
2022/09/16 17:32:27;;;;;;;;;;;20.70;43.60;;;18.71;50.66;99918.25;12249513;19;20278;-85
2022/09/16 17:36:29;;;;;;;;;;;20.60;43.60;;;18.71;50.55;99923.56;12254992;19;20336;-85
2022/09/16 17:40:31;;;;;;;;;;;20.60;43.60;;;18.53;50.49;99899.84;12251648;19;19927;-86
2022/09/16 17:44:32;;;;;;;;;;;20.50;43.60;;;18.53;50.52;99908.59;12254793;19;19995;-85
2022/09/16 17:48:36;;;;;;;;;;;20.50;44.00;;;18.55;50.75;99929.56;12255367;19;19956;-86
2022/09/16 17:52:38;;;;;;;;;;;20.40;43.60;;;18.48;50.50;99934.66;12252407;19;19979;-85
2022/09/16 17:56:41;;;;;;;;;;;20.60;44.10;;;18.39;50.60;99926.81;12252978;19;19978;-85
2022/09/16 18:00:43;;;;;;;;;;;20.30;43.70;;;18.13;50.57;99903.84;12251238;19;19915;-85
2022/09/16 18:04:46;;;;;;;;;;;20.20;43.60;;;18.15;50.62;99915.09;12256384;19;19936;-85
2022/09/16 18:08:49;;;;;;;;;;;20.10;43.80;;;17.48;50.55;99824.88;12257032;19;19957;-87
2022/09/16 18:12:50;;;;;;;;;;;20.10;43.50;;;17.78;50.61;99892.31;12253438;19;19939;-86
2022/09/16 18:16:52;;;;;;;;;;;20.00;43.60;;;17.66;50.42;99878.53;12256513;19;20344;-85
2022/09/16 18:20:54;;;;;;;;;;;19.90;43.70;;;17.95;50.28;99938.22;12253909;19;19947;-85
2022/09/16 18:24:56;;;;;;;;;;;19.90;43.80;;;17.46;50.32;99850.59;12256679;19;19918;-86
2022/09/16 18:28:59;;;;;;;;;;;20.10;44.00;;;17.39;50.27;99846.88;12254145;19;20344;-86
2022/09/16 18:33:01;;;;;;;;;;;20.10;44.10;;;17.36;50.30;99847.19;12253977;19;19918;-86
2022/09/16 18:37:03;;;;;;;;;;;19.70;43.80;;;17.21;50.50;99844.25;12255551;19;20010;-85